Time;durP1;ratioP1;P1;durP2;ratioP2;P2;SDS_P1;SDS_P2;PMS_P1;PMS_P2;Temp;Humidity;BMP_temperature;BMP_pressure;BME280_temperature;BME280_humidity;BME280_pressure;Samples;Min_cycle;Max_cycle;Signal;HPM_P1;HPM_P2
2022/06/02 00:00:56;;;;;;;3.22;2.60;;;;;;;;;;5032067;28;20040;-77
2022/06/02 00:03:41;;;;;;;3.08;2.42;;;;;;;;;;5032626;28;20034;-77
2022/06/02 00:06:21;;;;;;;4.38;2.60;;;;;;;;;;5032033;28;20060;-77
2022/06/02 00:09:12;;;;;;;3.22;2.88;;;;;;;;;;5031742;28;20056;-77
2022/06/02 00:11:53;;;;;;;3.30;2.45;;;;;;;;;;5026181;28;20059;-77
2022/06/02 00:14:29;;;;;;;3.00;2.80;;;;;;;;;;5030744;28;20029;-77
2022/06/02 00:17:04;;;;;;;3.03;2.60;;;;;;;;;;5032109;28;20076;-77
2022/06/02 00:20:05;;;;;;;3.15;2.70;;;;;;;;;;5030467;28;20033;-77
2022/06/02 00:22:52;;;;;;;4.25;2.80;;;;;;;;;;5031843;28;20072;-77
2022/06/02 00:25:23;;;;;;;3.88;3.15;;;;;;;;;;5029354;28;20036;-77
2022/06/02 00:28:08;;;;;;;4.68;3.75;;;;;;;;;;5031398;28;20103;-78
2022/06/02 00:30:46;;;;;;;5.03;3.55;;;;;;;;;;5029939;28;20029;-77
2022/06/02 00:33:12;;;;;;;3.80;3.35;;;;;;;;;;5030930;28;20187;-77
2022/06/02 00:35:52;;;;;;;4.22;3.47;;;;;;;;;;5030633;28;20041;-77
2022/06/02 00:38:29;;;;;;;3.50;3.17;;;;;;;;;;5029727;28;20024;-76
2022/06/02 00:41:04;;;;;;;3.63;2.88;;;;;;;;;;5029677;28;20148;-77
2022/06/02 00:43:35;;;;;;;3.28;2.88;;;;;;;;;;5023925;28;20033;-77
2022/06/02 00:46:25;;;;;;;5.75;3.10;;;;;;;;;;5030148;28;20056;-76
2022/06/02 00:49:09;;;;;;;6.10;3.20;;;;;;;;;;5028563;28;20091;-77
2022/06/02 00:51:46;;;;;;;3.50;3.20;;;;;;;;;;5029884;28;20524;-77
2022/06/02 00:57:52;;;;;;;3.03;2.70;;;;;;;;;;5021875;28;20557;-77
2022/06/02 01:00:20;;;;;;;4.57;2.90;;;;;;;;;;5028719;28;20029;-77
2022/06/02 01:03:19;;;;;;;3.03;2.60;;;;;;;;;;5028590;28;20696;-77
2022/06/02 01:05:56;;;;;;;3.38;2.90;;;;;;;;;;5025259;28;20032;-76
2022/06/02 01:08:40;;;;;;;3.13;2.83;;;;;;;;;;5029708;28;20029;-77
2022/06/02 01:11:37;;;;;;;2.80;2.60;;;;;;;;;;5030043;28;20605;-77
2022/06/02 01:14:40;;;;;;;2.88;2.50;;;;;;;;;;5029816;28;20033;-76
2022/06/02 01:17:28;;;;;;;3.97;2.90;;;;;;;;;;5028077;28;20498;-76
2022/06/02 01:20:25;;;;;;;3.70;3.25;;;;;;;;;;5025988;28;20100;-75
2022/06/02 01:23:22;;;;;;;3.42;3.10;;;;;;;;;;5029491;28;20124;-76
2022/06/02 01:26:01;;;;;;;7.40;3.40;;;;;;;;;;5029608;28;20566;-76
2022/06/02 01:28:58;;;;;;;3.28;2.97;;;;;;;;;;5029455;28;20116;-76
2022/06/02 01:31:33;;;;;;;3.85;3.40;;;;;;;;;;5026018;28;20028;-77
2022/06/02 01:34:13;;;;;;;4.65;3.45;;;;;;;;;;5024740;28;20483;-76
2022/06/02 01:37:13;;;;;;;4.60;3.40;;;;;;;;;;5029419;28;20033;-76
2022/06/02 01:40:25;;;;;;;5.65;3.67;;;;;;;;;;5028739;28;20034;-75
2022/06/02 01:42:59;;;;;;;5.15;3.80;;;;;;;;;;5020921;28;20282;-76
2022/06/02 01:45:54;;;;;;;3.53;3.22;;;;;;;;;;5021521;28;20083;-75
2022/06/02 01:48:58;;;;;;;4.10;3.30;;;;;;;;;;5028616;28;20029;-76
2022/06/02 01:51:42;;;;;;;3.53;3.22;;;;;;;;;;5029400;28;20135;-76
2022/06/02 01:54:28;;;;;;;3.72;3.25;;;;;;;;;;5028331;28;20025;-76
2022/06/02 01:57:03;;;;;;;4.60;3.45;;;;;;;;;;5029021;28;20033;-77
2022/06/02 01:59:51;;;;;;;8.05;3.20;;;;;;;;;;5027547;28;20569;-77
2022/06/02 02:02:25;;;;;;;3.63;3.17;;;;;;;;;;5027903;28;20025;-77
2022/06/02 02:05:28;;;;;;;4.30;3.40;;;;;;;;;;5028056;28;20017;-77
2022/06/02 02:08:09;;;;;;;4.28;3.28;;;;;;;;;;5021814;28;20407;-77
2022/06/02 02:11:03;;;;;;;3.65;3.30;;;;;;;;;;5028583;28;20478;-77
2022/06/02 02:14:03;;;;;;;4.75;3.60;;;;;;;;;;5023592;28;20049;-78
2022/06/02 02:16:51;;;;;;;4.57;3.40;;;;;;;;;;5027625;28;20079;-77
2022/06/02 02:19:34;;;;;;;4.97;3.72;;;;;;;;;;5028338;28;20029;-77
2022/06/02 02:22:30;;;;;;;5.97;3.50;;;;;;;;;;5028378;28;20426;-78
2022/06/02 02:25:19;;;;;;;5.43;3.50;;;;;;;;;;5025052;28;20026;-77
2022/06/02 02:28:03;;;;;;;4.45;3.65;;;;;;;;;;5028581;28;20025;-76
2022/06/02 02:30:43;;;;;;;4.07;3.67;;;;;;;;;;5027885;28;20426;-76
2022/06/02 02:33:37;;;;;;;5.30;3.83;;;;;;;;;;5028337;28;20025;-76
2022/06/02 02:36:33;;;;;;;3.85;3.55;;;;;;;;;;5027252;28;20021;-75
2022/06/02 02:39:17;;;;;;;4.22;3.47;;;;;;;;;;5026515;28;20065;-76
2022/06/02 02:41:48;;;;;;;4.57;3.75;;;;;;;;;;5022643;28;20146;-76
2022/06/02 02:44:22;;;;;;;4.05;3.40;;;;;;;;;;5027460;28;20025;-76
2022/06/02 02:46:57;;;;;;;4.10;3.70;;;;;;;;;;5028273;28;20116;-76
2022/06/02 02:49:41;;;;;;;5.35;4.10;;;;;;;;;;5028109;28;20025;-76
2022/06/02 02:52:27;;;;;;;5.75;4.00;;;;;;;;;;5027119;28;20028;-76
2022/06/02 02:55:17;;;;;;;4.80;4.18;;;;;;;;;;5027296;28;20088;-75
2022/06/02 02:58:25;;;;;;;6.25;4.20;;;;;;;;;;5031906;28;20029;-76
2022/06/02 03:01:00;;;;;;;4.40;4.00;;;;;;;;;;5008303;28;20084;-77
2022/06/02 03:03:40;;;;;;;6.35;4.00;;;;;;;;;;5008918;28;20018;-77
2022/06/02 03:06:26;;;;;;;5.75;3.70;;;;;;;;;;5008426;28;20340;-76
2022/06/02 03:09:14;;;;;;;4.40;3.97;;;;;;;;;;5008266;28;20014;-76
2022/06/02 03:11:45;;;;;;;5.38;4.00;;;;;;;;;;5026773;28;20399;-76
2022/06/02 03:14:28;;;;;;;4.57;4.18;;;;;;;;;;5028144;28;20091;-76
2022/06/02 03:17:08;;;;;;;4.88;4.20;;;;;;;;;;5027999;28;20033;-77
2022/06/02 03:19:45;;;;;;;6.47;4.40;;;;;;;;;;5026922;28;20025;-77
2022/06/02 03:22:31;;;;;;;6.28;4.32;;;;;;;;;;5026918;28;20088;-77
2022/06/02 03:25:05;;;;;;;4.93;4.43;;;;;;;;;;5027915;28;20021;-76
2022/06/02 03:27:46;;;;;;;5.88;4.53;;;;;;;;;;5025692;28;20033;-76
2022/06/02 03:30:21;;;;;;;8.13;4.75;;;;;;;;;;5026957;28;20063;-76
2022/06/02 03:33:21;;;;;;;6.28;4.47;;;;;;;;;;5027753;28;20108;-77
2022/06/02 03:36:09;;;;;;;7.15;4.57;;;;;;;;;;4992400;28;20037;-78
2022/06/02 03:38:40;;;;;;;5.72;4.43;;;;;;;;;;5028156;28;20113;-78
2022/06/02 03:41:29;;;;;;;10.10;4.25;;;;;;;;;;5029786;28;20076;-77
2022/06/02 03:43:57;;;;;;;4.82;4.32;;;;;;;;;;5030525;28;20045;-77
2022/06/02 03:46:43;;;;;;;6.15;4.38;;;;;;;;;;5020172;28;20060;-77
2022/06/02 03:49:26;;;;;;;4.70;4.20;;;;;;;;;;5028300;28;20024;-77
2022/06/02 03:52:20;;;;;;;4.95;4.45;;;;;;;;;;5028238;28;20112;-77
2022/06/02 03:55:14;;;;;;;5.00;4.25;;;;;;;;;;5027922;28;20082;-77
2022/06/02 03:57:55;;;;;;;5.35;4.78;;;;;;;;;;5031498;28;20029;-76
2022/06/02 04:00:31;;;;;;;4.82;4.20;;;;;;;;;;5028624;28;20095;-76
2022/06/02 04:03:02;;;;;;;4.95;4.30;;;;;;;;;;5030983;28;20045;-77
2022/06/02 04:05:48;;;;;;;5.75;4.15;;;;;;;;;;5031593;28;20051;-76
2022/06/02 04:08:24;;;;;;;5.93;4.30;;;;;;;;;;5029815;28;20052;-77
2022/06/02 04:10:55;;;;;;;5.45;4.57;;;;;;;;;;5031895;28;20029;-77
2022/06/02 04:13:38;;;;;;;5.18;4.68;;;;;;;;;;5032350;28;20025;-77
2022/06/02 04:16:33;;;;;;;5.40;4.90;;;;;;;;;;5031623;28;20072;-78
2022/06/02 04:22:24;;;;;;;5.37;4.37;;;;;;;;;;5030590;28;20040;-77
2022/06/02 04:25:10;;;;;;;6.20;4.88;;;;;;;;;;5031146;28;20095;-77
2022/06/02 04:27:41;;;;;;;7.50;4.53;;;;;;;;;;5031401;28;20080;-77
2022/06/02 04:30:20;;;;;;;5.97;5.13;;;;;;;;;;5030538;28;20161;-77
2022/06/02 04:32:59;;;;;;;5.78;4.60;;;;;;;;;;5031026;28;20026;-78
2022/06/02 04:35:44;;;;;;;5.13;4.63;;;;;;;;;;5031144;28;20029;-77
2022/06/02 04:38:35;;;;;;;6.60;4.72;;;;;;;;;;5029026;28;20025;-77
2022/06/02 04:41:53;;;;;;;5.18;4.68;;;;;;;;;;5030285;28;20026;-77
2022/06/02 04:44:38;;;;;;;4.72;4.30;;;;;;;;;;5005821;28;20124;-77
2022/06/02 04:47:28;;;;;;;5.40;4.90;;;;;;;;;;5030059;28;20144;-78
2022/06/02 04:50:07;;;;;;;5.03;4.53;;;;;;;;;;5030103;28;20029;-77
2022/06/02 04:53:00;;;;;;;7.45;4.90;;;;;;;;;;5030329;28;20021;-77
2022/06/02 04:55:44;;;;;;;8.82;4.53;;;;;;;;;;5029430;28;20463;-77
2022/06/02 04:58:38;;;;;;;6.40;5.20;;;;;;;;;;5029599;28;20550;-76
2022/06/02 05:01:24;;;;;;;6.28;5.45;;;;;;;;;;5029896;28;20079;-77
2022/06/02 05:04:14;;;;;;;5.35;4.85;;;;;;;;;;5029769;28;20034;-78
2022/06/02 05:06:53;;;;;;;5.75;5.07;;;;;;;;;;5008117;28;20040;-77
2022/06/02 05:09:31;;;;;;;6.07;5.13;;;;;;;;;;5014077;28;20108;-75
2022/06/02 05:12:15;;;;;;;8.95;5.25;;;;;;;;;;5025865;28;20498;-76
2022/06/02 05:15:05;;;;;;;7.82;5.03;;;;;;;;;;5026470;28;20057;-76
2022/06/02 05:17:48;;;;;;;5.63;5.00;;;;;;;;;;5016826;28;20388;-77
2022/06/02 05:20:32;;;;;;;6.15;5.55;;;;;;;;;;5011054;28;20083;-77
2022/06/02 05:23:29;;;;;;;7.32;5.60;;;;;;;;;;5025702;28;20025;-77
2022/06/02 05:26:14;;;;;;;6.57;5.28;;;;;;;;;;5002177;28;20092;-77
2022/06/02 05:29:25;;;;;;;5.93;5.30;;;;;;;;;;5038020;28;20116;-77
2022/06/02 05:32:20;;;;;;;6.10;5.50;;;;;;;;;;5021232;28;20032;-77
2022/06/02 05:35:07;;;;;;;5.53;5.03;;;;;;;;;;5016811;28;20060;-77
2022/06/02 05:37:44;;;;;;;7.78;5.38;;;;;;;;;;5019931;28;20037;-77
2022/06/02 05:40:40;;;;;;;6.00;5.40;;;;;;;;;;5023015;28;20025;-78
2022/06/02 05:43:21;;;;;;;6.90;5.85;;;;;;;;;;5027212;28;20079;-76
2022/06/02 05:46:24;;;;;;;6.05;5.45;;;;;;;;;;5027663;28;20029;-76
2022/06/02 05:48:55;;;;;;;8.55;5.88;;;;;;;;;;5037956;28;20040;-77
2022/06/02 05:51:27;;;;;;;6.53;5.60;;;;;;;;;;5028821;28;20029;-77
2022/06/02 05:54:21;;;;;;;6.32;5.57;;;;;;;;;;5025326;28;20094;-74
2022/06/02 05:57:02;;;;;;;5.95;5.38;;;;;;;;;;5022192;28;20037;-76
2022/06/02 05:59:37;;;;;;;5.97;5.10;;;;;;;;;;5027535;28;20153;-75
2022/06/02 06:02:14;;;;;;;5.47;4.88;;;;;;;;;;5027664;28;20040;-76
2022/06/02 06:05:07;;;;;;;8.32;5.55;;;;;;;;;;5027437;28;20036;-75
2022/06/02 06:07:54;;;;;;;6.32;5.07;;;;;;;;;;5020874;28;20542;-75
2022/06/02 06:10:32;;;;;;;6.03;4.70;;;;;;;;;;5027392;28;20494;-77
2022/06/02 06:13:21;;;;;;;6.30;4.90;;;;;;;;;;5019145;28;20025;-76
2022/06/02 06:16:04;;;;;;;5.57;5.03;;;;;;;;;;5017147;28;20025;-75
2022/06/02 06:18:53;;;;;;;8.35;6.13;;;;;;;;;;5020315;28;20702;-76
2022/06/02 06:21:36;;;;;;;5.47;4.20;;;;;;;;;;5021818;28;20479;-76
2022/06/02 06:24:16;;;;;;;4.30;3.90;;;;;;;;;;5018807;28;20029;-75
2022/06/02 06:26:57;;;;;;;7.03;3.67;;;;;;;;;;5022539;28;20048;-74
2022/06/02 06:29:32;;;;;;;4.93;4.20;;;;;;;;;;5036225;28;20048;-77
2022/06/02 06:32:13;;;;;;;5.88;4.05;;;;;;;;;;5031735;28;20057;-77
2022/06/02 06:34:38;;;;;;;5.53;3.65;;;;;;;;;;5018530;28;20114;-77
2022/06/02 06:37:48;;;;;;;4.50;4.07;;;;;;;;;;5017592;28;20065;-76
2022/06/02 06:40:29;;;;;;;8.45;4.57;;;;;;;;;;4997577;28;20045;-76
2022/06/02 06:43:19;;;;;;;6.78;4.20;;;;;;;;;;5011700;28;20031;-76
2022/06/02 06:45:47;;;;;;;4.97;4.20;;;;;;;;;;5021080;28;20036;-75
2022/06/02 06:48:23;;;;;;;5.07;4.00;;;;;;;;;;5020948;28;20037;-74
2022/06/02 06:51:01;;;;;;;7.35;4.63;;;;;;;;;;5025669;28;20083;-74
2022/06/02 06:53:39;;;;;;;7.18;5.30;;;;;;;;;;5020349;28;20491;-76
2022/06/02 06:56:24;;;;;;;8.10;5.55;;;;;;;;;;5021270;28;20032;-74
2022/06/02 06:59:23;;;;;;;8.18;5.35;;;;;;;;;;5023068;28;20029;-75
2022/06/02 07:02:12;;;;;;;6.15;5.25;;;;;;;;;;5005075;28;20087;-75
2022/06/02 07:04:56;;;;;;;9.35;5.32;;;;;;;;;;5024501;28;20056;-76
2022/06/02 07:07:21;;;;;;;7.18;5.28;;;;;;;;;;5019148;28;20104;-76
2022/06/02 07:10:04;;;;;;;7.93;5.50;;;;;;;;;;5018657;28;20167;-77
2022/06/02 07:12:51;;;;;;;;;;;;;;;;;;5024691;28;20381;-78
2022/06/02 07:15:47;;;;;;;6.70;5.60;;;;;;;;;;5029229;28;20349;-78
2022/06/02 07:18:12;;;;;;;8.63;6.07;;;;;;;;;;5028902;28;20040;-77
2022/06/02 07:20:54;;;;;;;8.80;5.37;;;;;;;;;;5024208;28;20311;-75
2022/06/02 07:23:40;;;;;;;8.48;6.00;;;;;;;;;;5021571;28;20300;-78
2022/06/02 07:26:28;;;;;;;9.30;6.72;;;;;;;;;;5035324;28;20169;-77
2022/06/02 07:29:05;;;;;;;8.82;5.20;;;;;;;;;;5022972;28;20114;-79
2022/06/02 07:32:08;;;;;;;6.95;5.47;;;;;;;;;;5030427;28;20028;-78
2022/06/02 07:34:42;;;;;;;7.22;5.30;;;;;;;;;;5025346;28;20056;-78
2022/06/02 07:37:10;;;;;;;11.40;5.97;;;;;;;;;;5028865;28;20233;-81
2022/06/02 07:39:57;;;;;;;6.55;5.72;;;;;;;;;;5033973;28;20025;-79
2022/06/02 07:42:28;;;;;;;5.85;5.22;;;;;;;;;;5025906;28;20341;-78
2022/06/02 07:45:18;;;;;;;8.77;6.03;;;;;;;;;;5031895;28;20558;-78
2022/06/02 07:47:46;;;;;;;7.55;6.03;;;;;;;;;;5024853;28;20587;-79
2022/06/02 07:50:28;;;;;;;8.20;5.85;;;;;;;;;;5027465;28;20026;-85
2022/06/02 07:53:18;;;;;;;7.22;5.45;;;;;;;;;;5041537;28;20116;-76
2022/06/02 07:55:46;;;;;;;5.70;5.10;;;;;;;;;;5038035;28;20091;-78
2022/06/02 07:58:27;;;;;;;8.45;5.43;;;;;;;;;;5029021;28;20478;-79
2022/06/02 08:01:01;;;;;;;6.90;5.15;;;;;;;;;;5028107;28;20605;-81
2022/06/02 08:03:39;;;;;;;7.18;5.20;;;;;;;;;;5032018;28;20557;-76
2022/06/02 08:06:16;;;;;;;6.13;4.70;;;;;;;;;;5049839;28;20033;-80
2022/06/02 08:08:51;;;;;;;6.43;4.65;;;;;;;;;;5046144;28;20025;-77
2022/06/02 08:11:41;;;;;;;7.82;4.65;;;;;;;;;;5031281;28;20056;-78
2022/06/02 08:14:24;;;;;;;5.25;4.75;;;;;;;;;;5026712;28;20025;-82
2022/06/02 08:16:49;;;;;;;5.50;4.82;;;;;;;;;;5038121;28;20025;-77
2022/06/02 08:19:37;;;;;;;6.43;4.93;;;;;;;;;;5049100;28;20028;-80
2022/06/02 08:22:06;;;;;;;6.90;4.32;;;;;;;;;;5024741;28;20033;-79
2022/06/02 08:24:54;;;;;;;4.53;4.13;;;;;;;;;;5028169;28;20032;-78
2022/06/02 08:27:26;;;;;;;4.72;3.80;;;;;;;;;;5028077;28;20498;-78
2022/06/02 08:30:01;;;;;;;7.13;3.97;;;;;;;;;;5036567;28;20029;-80
2022/06/02 08:32:56;;;;;;;6.25;3.28;;;;;;;;;;5027908;28;20032;-79
2022/06/02 08:35:32;;;;;;;5.82;3.35;;;;;;;;;;5037107;28;20100;-78
2022/06/02 08:38:35;;;;;;;6.75;3.20;;;;;;;;;;5026367;28;20036;-78
2022/06/02 08:41:31;;;;;;;3.63;3.33;;;;;;;;;;5036907;28;20041;-77
2022/06/02 08:44:23;;;;;;;4.55;3.78;;;;;;;;;;5027509;28;20061;-78
2022/06/02 08:47:07;;;;;;;5.57;3.30;;;;;;;;;;5026678;28;20022;-78
2022/06/02 08:49:38;;;;;;;3.25;2.95;;;;;;;;;;5032082;28;20378;-81
2022/06/02 08:52:06;;;;;;;4.15;3.08;;;;;;;;;;5025027;28;20479;-79
2022/06/02 08:55:10;;;;;;;3.50;3.08;;;;;;;;;;5034925;28;20055;-78
2022/06/02 08:57:57;;;;;;;6.47;2.83;;;;;;;;;;5028096;28;20040;-77
2022/06/02 09:00:47;;;;;;;4.60;2.85;;;;;;;;;;5041972;28;20237;-78
2022/06/02 09:03:46;;;;;;;5.38;2.85;;;;;;;;;;5051989;28;20427;-79
2022/06/02 09:06:47;;;;;;;3.47;2.85;;;;;;;;;;5026631;28;20490;-77
2022/06/02 09:09:40;;;;;;;3.70;2.55;;;;;;;;;;4997115;28;20495;-77
2022/06/02 09:12:17;;;;;;;3.42;3.00;;;;;;;;;;5043152;28;20024;-77
2022/06/02 09:14:54;;;;;;;4.68;2.88;;;;;;;;;;5047655;28;20027;-76
2022/06/02 09:17:40;;;;;;;4.95;3.00;;;;;;;;;;5037104;28;20113;-77
2022/06/02 09:20:29;;;;;;;5.30;2.53;;;;;;;;;;5025874;28;20060;-80
2022/06/02 09:23:16;;;;;;;4.35;2.50;;;;;;;;;;5033161;28;20025;-79
2022/06/02 09:26:13;;;;;;;3.83;2.40;;;;;;;;;;5029567;28;20021;-75
2022/06/02 09:29:20;;;;;;;4.25;2.45;;;;;;;;;;5028699;28;20048;-78
2022/06/02 09:32:01;;;;;;;4.90;2.55;;;;;;;;;;5009793;28;20038;-80
2022/06/02 09:34:26;;;;;;;;;;;;;;;;;;5026621;28;20045;-76
2022/06/02 09:37:08;;;;;;;5.43;2.30;;;;;;;;;;5028655;28;19971;-78
2022/06/02 09:40:20;;;;;;;3.28;2.45;;;;;;;;;;5029887;28;20025;-76
2022/06/02 09:43:01;;;;;;;3.63;2.58;;;;;;;;;;5035570;28;20040;-75
2022/06/02 09:45:44;;;;;;;3.23;2.20;;;;;;;;;;5023727;28;20037;-76
2022/06/02 09:48:36;;;;;;;1.90;1.80;;;;;;;;;;5046578;28;20035;-82
2022/06/02 09:51:20;;;;;;;2.67;1.88;;;;;;;;;;4991564;28;20120;-83
2022/06/02 09:54:01;;;;;;;2.47;1.67;;;;;;;;;;5010850;28;20098;-77
2022/06/02 09:56:44;;;;;;;3.33;2.23;;;;;;;;;;5025469;28;20032;-74
2022/06/02 09:59:40;;;;;;;2.30;1.73;;;;;;;;;;5024196;28;20306;-76
2022/06/02 10:02:11;;;;;;;3.38;1.90;;;;;;;;;;5020984;28;20021;-76
2022/06/02 10:05:10;;;;;;;2.38;2.05;;;;;;;;;;5026044;28;20032;-78
2022/06/02 10:07:38;;;;;;;1.73;1.63;;;;;;;;;;5027224;28;20024;-78
2022/06/02 10:10:25;;;;;;;1.67;1.58;;;;;;;;;;5032717;28;20014;-77
2022/06/02 10:12:56;;;;;;;1.70;1.50;;;;;;;;;;5026861;28;20033;-76
2022/06/02 10:15:33;;;;;;;2.85;1.80;;;;;;;;;;5025072;28;20025;-78
2022/06/02 10:18:18;;;;;;;2.05;1.60;;;;;;;;;;5029632;28;20590;-77
2022/06/02 10:21:04;;;;;;;1.95;1.75;;;;;;;;;;5020896;28;20091;-79
2022/06/02 10:23:44;;;;;;;1.60;1.50;;;;;;;;;;5035298;28;20090;-75
2022/06/02 10:26:44;;;;;;;1.70;1.42;;;;;;;;;;5024826;28;20096;-76
2022/06/02 10:29:26;;;;;;;3.58;1.70;;;;;;;;;;5023220;28;20026;-77
2022/06/02 10:32:19;;;;;;;2.20;1.30;;;;;;;;;;5029300;28;20394;-77
2022/06/02 10:35:21;;;;;;;4.45;1.55;;;;;;;;;;5030746;28;20017;-77
2022/06/02 10:38:05;;;;;;;4.00;1.60;;;;;;;;;;5024854;28;20501;-81
2022/06/02 10:41:10;;;;;;;2.53;1.30;;;;;;;;;;5012740;28;20025;-76
2022/06/02 10:43:58;;;;;;;2.88;1.48;;;;;;;;;;5017388;28;20022;-77
2022/06/02 10:46:42;;;;;;;1.50;1.33;;;;;;;;;;5016102;28;20375;-78
2022/06/02 10:49:26;;;;;;;1.70;1.60;;;;;;;;;;5012601;28;20048;-75
2022/06/02 10:52:30;;;;;;;1.02;1.00;;;;;;;;;;5019796;28;20587;-76
2022/06/02 10:55:17;;;;;;;2.40;1.60;;;;;;;;;;5030079;28;20391;-73
2022/06/02 10:58:04;;;;;;;2.60;1.20;;;;;;;;;;5010148;28;20126;-76
2022/06/02 11:01:04;;;;;;;3.00;1.25;;;;;;;;;;5010053;28;20103;-79
2022/06/02 11:03:52;;;;;;;1.70;1.30;;;;;;;;;;5012868;28;20402;-77
2022/06/02 11:07:15;;;;;;;1.25;1.10;;;;;;;;;;5021738;28;20030;-77
2022/06/02 11:09:58;;;;;;;1.70;1.42;;;;;;;;;;4983887;28;20141;-75
2022/06/02 11:12:45;;;;;;;2.15;1.10;;;;;;;;;;4983090;28;20030;-74
2022/06/02 11:15:48;;;;;;;1.20;1.10;;;;;;;;;;5014562;28;20494;-74
2022/06/02 11:18:28;;;;;;;3.45;1.10;;;;;;;;;;5035928;28;20017;-76
2022/06/02 11:21:24;;;;;;;2.10;1.15;;;;;;;;;;5027657;28;20021;-78
2022/06/02 11:23:49;;;;;;;3.15;0.93;;;;;;;;;;5019929;28;20522;-77
2022/06/02 11:26:33;;;;;;;3.33;1.30;;;;;;;;;;5023722;28;20111;-73
2022/06/02 11:29:43;;;;;;;2.42;1.02;;;;;;;;;;5023013;28;20641;-76
2022/06/02 11:32:12;;;;;;;1.10;1.00;;;;;;;;;;5021005;28;20055;-74
2022/06/02 11:35:01;;;;;;;1.58;1.10;;;;;;;;;;5024299;28;20249;-75
2022/06/02 11:37:29;;;;;;;2.83;1.40;;;;;;;;;;5005694;28;20033;-75
2022/06/02 11:40:16;;;;;;;1.13;1.02;;;;;;;;;;5009594;28;20116;-75
2022/06/02 11:43:00;;;;;;;2.92;1.20;;;;;;;;;;5018824;28;20609;-74
2022/06/02 11:45:37;;;;;;;1.30;1.20;;;;;;;;;;5011276;28;20064;-75
2022/06/02 11:48:29;;;;;;;1.48;1.00;;;;;;;;;;5026710;28;20025;-74
2022/06/02 11:51:14;;;;;;;2.05;1.15;;;;;;;;;;5024459;28;20263;-74
2022/06/02 11:54:28;;;;;;;3.38;1.02;;;;;;;;;;5016830;28;20025;-73
2022/06/02 11:57:31;;;;;;;2.33;1.17;;;;;;;;;;5000507;28;20332;-74
2022/06/02 12:00:51;;;;;;;1.85;1.13;;;;;;;;;;5021721;28;20041;-77
2022/06/02 12:03:44;;;;;;;3.78;1.13;;;;;;;;;;4994883;28;20178;-74
2022/06/02 12:06:22;;;;;;;1.42;1.33;;;;;;;;;;5028359;28;20102;-76
2022/06/02 12:09:22;;;;;;;1.40;1.30;;;;;;;;;;5031884;28;20594;-75
2022/06/02 12:11:59;;;;;;;1.27;1.10;;;;;;;;;;5030019;28;20040;-78
2022/06/02 12:14:49;;;;;;;2.40;1.30;;;;;;;;;;5023589;28;20479;-74
2022/06/02 12:18:08;;;;;;;2.38;1.27;;;;;;;;;;5015776;28;20044;-72
2022/06/02 12:21:06;;;;;;;2.60;1.10;;;;;;;;;;4993390;28;20038;-73
2022/06/02 12:23:55;;;;;;;1.42;1.05;;;;;;;;;;5022396;28;20022;-72
2022/06/02 12:26:41;;;;;;;1.52;1.10;;;;;;;;;;5014185;28;20041;-73
2022/06/02 12:29:47;;;;;;;1.92;1.20;;;;;;;;;;5021108;28;20017;-75
2022/06/02 12:32:16;;;;;;;4.05;1.40;;;;;;;;;;5022886;28;20106;-74
2022/06/02 12:35:19;;;;;;;3.08;1.30;;;;;;;;;;5021306;28;20048;-76
2022/06/02 12:37:53;;;;;;;1.40;1.30;;;;;;;;;;5022407;28;20491;-76
2022/06/02 12:40:33;;;;;;;3.33;1.20;;;;;;;;;;5030787;28;20786;-73
2022/06/02 12:43:18;;;;;;;1.40;1.17;;;;;;;;;;5022533;28;20035;-75
2022/06/02 12:45:58;;;;;;;2.05;1.10;;;;;;;;;;5003430;28;20745;-73
2022/06/02 12:48:45;;;;;;;2.50;1.05;;;;;;;;;;5009002;28;20065;-76
2022/06/02 12:51:29;;;;;;;2.97;1.27;;;;;;;;;;5008022;28;20048;-76
2022/06/02 12:54:13;;;;;;;1.52;0.90;;;;;;;;;;5023649;28;20061;-75
2022/06/02 12:56:57;;;;;;;1.10;1.00;;;;;;;;;;5021416;28;20036;-74
2022/06/02 12:59:23;;;;;;;3.08;1.20;;;;;;;;;;5021405;28;20356;-76
2022/06/02 13:01:50;;;;;;;1.55;1.20;;;;;;;;;;5020314;28;20029;-75
2022/06/02 13:04:30;;;;;;;3.42;1.20;;;;;;;;;;5021677;28;20479;-77
2022/06/02 13:07:13;;;;;;;2.38;1.00;;;;;;;;;;5035017;28;20039;-74
2022/06/02 13:10:12;;;;;;;3.65;1.10;;;;;;;;;;5035454;28;20025;-77
2022/06/02 13:13:12;;;;;;;1.35;1.10;;;;;;;;;;5016588;28;20025;-74
2022/06/02 13:16:02;;;;;;;1.20;1.10;;;;;;;;;;5019734;28;20092;-75
2022/06/02 13:19:04;;;;;;;1.10;1.00;;;;;;;;;;5026324;28;20021;-74
2022/06/02 13:21:36;;;;;;;1.30;1.00;;;;;;;;;;5024873;28;20315;-75
2022/06/02 13:24:10;;;;;;;1.30;1.20;;;;;;;;;;5026004;28;20031;-74
2022/06/02 13:26:56;;;;;;;2.08;1.20;;;;;;;;;;5024771;28;20103;-72
2022/06/02 13:29:51;;;;;;;2.78;1.10;;;;;;;;;;5025473;28;20056;-72
2022/06/02 13:32:47;;;;;;;1.40;1.30;;;;;;;;;;5024470;28;20335;-75
2022/06/02 13:35:23;;;;;;;3.63;1.40;;;;;;;;;;5026657;28;20029;-75
2022/06/02 13:38:11;;;;;;;1.25;1.10;;;;;;;;;;5026596;28;20025;-75
2022/06/02 13:40:42;;;;;;;2.03;1.23;;;;;;;;;;5025381;28;20057;-76
2022/06/02 13:43:07;;;;;;;2.43;1.07;;;;;;;;;;5021553;28;20422;-73
2022/06/02 13:46:02;;;;;;;1.20;1.10;;;;;;;;;;5025918;28;20021;-73
2022/06/02 13:48:58;;;;;;;1.80;1.20;;;;;;;;;;5025602;28;20266;-76
2022/06/02 13:51:54;;;;;;;0.95;0.93;;;;;;;;;;5025135;28;20030;-75
2022/06/02 13:57:30;;;;;;;1.70;1.20;;;;;;;;;;5026991;28;20116;-72
2022/06/02 14:00:01;;;;;;;3.30;1.20;;;;;;;;;;5028512;28;20033;-76
2022/06/02 14:02:51;;;;;;;1.33;1.20;;;;;;;;;;5027577;28;20734;-75
2022/06/02 14:05:41;;;;;;;3.33;1.30;;;;;;;;;;5028670;28;20029;-74
2022/06/02 14:08:39;;;;;;;1.60;1.05;;;;;;;;;;5027454;28;20029;-70
2022/06/02 14:11:17;;;;;;;1.08;0.98;;;;;;;;;;5027828;28;20029;-75
2022/06/02 14:13:54;;;;;;;2.13;1.10;;;;;;;;;;5027935;28;20041;-77
2022/06/02 14:16:38;;;;;;;2.60;1.23;;;;;;;;;;5029065;28;20525;-74
2022/06/02 14:19:12;;;;;;;1.45;1.13;;;;;;;;;;5027134;28;20091;-71
2022/06/02 14:22:01;;;;;;;1.50;1.20;;;;;;;;;;5024009;28;20022;-75
2022/06/02 14:24:59;;;;;;;2.22;1.27;;;;;;;;;;5021750;28;20403;-76
2022/06/02 14:27:27;;;;;;;2.38;1.20;;;;;;;;;;5028970;28;20017;-78
2022/06/02 14:30:16;;;;;;;3.55;1.30;;;;;;;;;;5028773;28;20135;-75
2022/06/02 14:33:20;;;;;;;1.20;1.10;;;;;;;;;;5027789;28;20029;-70
2022/06/02 14:36:06;;;;;;;1.27;1.17;;;;;;;;;;5023128;28;20134;-75
2022/06/02 14:39:03;;;;;;;2.30;1.05;;;;;;;;;;5025851;28;20022;-79
2022/06/02 14:41:43;;;;;;;1.92;1.13;;;;;;;;;;5020745;28;20284;-76
2022/06/02 14:44:15;;;;;;;1.30;1.10;;;;;;;;;;5028513;28;20029;-77
2022/06/02 14:47:12;;;;;;;1.00;0.90;;;;;;;;;;5028550;28;20030;-77
2022/06/02 14:50:01;;;;;;;1.42;1.30;;;;;;;;;;5029342;28;20517;-77
2022/06/02 14:52:42;;;;;;;1.20;1.10;;;;;;;;;;5032777;28;20037;-78
2022/06/02 14:55:22;;;;;;;1.73;0.95;;;;;;;;;;5026678;28;20146;-77
2022/06/02 14:58:00;;;;;;;0.88;0.88;;;;;;;;;;5026990;28;20026;-75
2022/06/02 15:00:38;;;;;;;3.70;0.88;;;;;;;;;;5027040;28;20033;-77
2022/06/02 15:03:13;;;;;;;5.38;1.10;;;;;;;;;;5028984;28;20065;-78
2022/06/02 15:06:01;;;;;;;1.10;1.00;;;;;;;;;;5029764;28;20037;-78
2022/06/02 15:08:38;;;;;;;1.73;0.98;;;;;;;;;;5034380;28;20022;-78
2022/06/02 15:11:12;;;;;;;1.20;1.10;;;;;;;;;;5027026;28;20028;-74
2022/06/02 15:13:57;;;;;;;1.88;1.05;;;;;;;;;;5028373;28;20360;-74
2022/06/02 15:16:46;;;;;;;1.00;0.90;;;;;;;;;;5027627;28;20029;-76
2022/06/02 15:19:28;;;;;;;1.15;0.95;;;;;;;;;;5027545;28;20025;-73
2022/06/02 15:22:14;;;;;;;0.80;0.80;;;;;;;;;;5028766;28;20473;-73
2022/06/02 15:24:58;;;;;;;2.13;0.80;;;;;;;;;;5028309;28;20578;-73
2022/06/02 15:27:44;;;;;;;1.33;0.90;;;;;;;;;;5027039;28;20036;-76
2022/06/02 15:30:47;;;;;;;1.35;0.82;;;;;;;;;;5028260;28;20028;-77
2022/06/02 15:33:31;;;;;;;0.80;0.80;;;;;;;;;;5028214;28;20061;-73
2022/06/02 15:36:28;;;;;;;1.17;1.08;;;;;;;;;;5028038;28;20096;-76
2022/06/02 15:39:31;;;;;;;1.73;0.75;;;;;;;;;;5028344;28;20446;-74
2022/06/02 15:42:23;;;;;;;0.80;0.80;;;;;;;;;;5027608;28;20029;-73
2022/06/02 15:45:00;;;;;;;1.25;0.80;;;;;;;;;;5023263;28;20116;-72
2022/06/02 15:47:47;;;;;;;0.60;0.60;;;;;;;;;;5025834;28;20052;-77
2022/06/02 15:50:31;;;;;;;0.70;0.70;;;;;;;;;;5029773;28;20503;-80
2022/06/02 15:53:08;;;;;;;0.68;0.68;;;;;;;;;;5035171;28;20065;-78
2022/06/02 15:55:53;;;;;;;0.90;0.90;;;;;;;;;;5034047;28;20052;-79
2022/06/02 15:58:21;;;;;;;1.48;0.70;;;;;;;;;;5026979;28;20063;-74
2022/06/02 16:01:20;;;;;;;0.80;0.80;;;;;;;;;;5030787;28;20475;-74
2022/06/02 16:04:15;;;;;;;1.20;0.70;;;;;;;;;;5032626;28;20119;-78
2022/06/02 16:06:59;;;;;;;0.98;0.90;;;;;;;;;;5030486;28;20025;-75
2022/06/02 16:13:04;;;;;;;0.80;0.80;;;;;;;;;;5034588;28;20049;-81
2022/06/02 16:15:47;;;;;;;1.10;1.00;;;;;;;;;;5010282;28;20037;-78
2022/06/02 16:18:40;;;;;;;1.20;0.80;;;;;;;;;;5031820;28;20037;-76
2022/06/02 16:21:31;;;;;;;2.00;0.80;;;;;;;;;;5030223;28;20037;-75
2022/06/02 16:24:20;;;;;;;1.77;1.00;;;;;;;;;;5031300;28;20026;-75
2022/06/02 16:27:23;;;;;;;0.70;0.70;;;;;;;;;;5025777;28;20025;-73
2022/06/02 16:30:06;;;;;;;2.47;0.88;;;;;;;;;;5012276;28;20045;-78
2022/06/02 16:33:03;;;;;;;1.98;1.02;;;;;;;;;;5031793;28;20036;-79
2022/06/02 16:36:06;;;;;;;1.15;0.85;;;;;;;;;;5028256;28;20101;-75
2022/06/02 16:39:06;;;;;;;2.22;1.10;;;;;;;;;;5031545;28;20032;-77
2022/06/02 16:41:59;;;;;;;0.90;0.90;;;;;;;;;;5030009;28;20483;-77
2022/06/02 16:44:56;;;;;;;2.63;1.00;;;;;;;;;;5030073;28;20034;-79